createdAt,value
2023-01-30T00:02:03.276Z,67.61
2023-01-30T00:07:03.254Z,67.84
2023-01-30T00:12:03.184Z,68.06
2023-01-30T00:17:03.110Z,68.20
2023-01-30T00:22:03.088Z,68.29
2023-01-30T00:27:02.964Z,68.33
2023-01-30T00:32:02.922Z,68.39
2023-01-30T00:37:08.382Z,68.40
2023-01-30T00:42:03.791Z,68.46
2023-01-30T00:47:02.706Z,68.40
2023-01-30T00:52:02.647Z,68.43
2023-01-30T00:57:02.580Z,68.47
2023-01-30T01:02:02.624Z,68.58
2023-01-30T01:07:23.869Z,68.36
2023-01-30T01:12:16.275Z,68.54
2023-01-30T01:17:16.272Z,68.67
2023-01-30T01:22:16.210Z,68.87
2023-01-30T01:27:16.103Z,68.95
2023-01-30T01:32:16.035Z,68.99
2023-01-30T01:37:15.985Z,68.94
2023-01-30T01:42:15.882Z,69.02
2023-01-30T01:47:15.863Z,69.04
2023-01-30T01:52:15.805Z,69.05
2023-01-30T01:57:15.716Z,69.15
2023-01-30T02:02:15.666Z,69.19
2023-01-30T02:07:15.585Z,69.29
2023-01-30T02:12:15.512Z,69.32
2023-01-30T02:17:15.506Z,69.29
2023-01-30T02:22:15.376Z,69.36
2023-01-30T02:27:15.365Z,69.36
2023-01-30T02:32:15.257Z,69.40
2023-01-30T02:37:15.194Z,69.39
2023-01-30T02:42:15.126Z,69.39
2023-01-30T02:47:15.090Z,69.41
2023-01-30T02:52:16.756Z,69.36
2023-01-30T02:57:14.952Z,69.39
2023-01-30T03:02:14.910Z,69.41
2023-01-30T03:07:14.829Z,69.50
2023-01-30T03:12:14.738Z,69.58
2023-01-30T03:17:14.722Z,69.65
2023-01-30T03:22:14.599Z,69.63
2023-01-30T03:27:14.554Z,69.66
2023-01-30T03:32:14.471Z,69.73
2023-01-30T03:37:14.452Z,69.80
2023-01-30T03:42:14.365Z,69.83
2023-01-30T03:47:14.318Z,69.91
2023-01-30T03:52:14.200Z,70.02
2023-01-30T03:57:14.179Z,69.99
2023-01-30T04:02:14.166Z,70.03
2023-01-30T04:07:14.036Z,70.08
2023-01-30T04:12:13.974Z,70.25
2023-01-30T04:17:13.920Z,70.32
2023-01-30T04:22:13.833Z,70.40
2023-01-30T04:27:13.819Z,70.53
2023-01-30T04:32:13.718Z,70.48
2023-01-30T04:37:13.665Z,70.45
2023-01-30T04:42:13.583Z,70.56
2023-01-30T04:47:13.569Z,70.60
2023-01-30T04:52:13.450Z,70.67
2023-01-30T04:57:13.405Z,70.80
2023-01-30T05:02:13.358Z,70.95
2023-01-30T05:07:13.282Z,71.01
2023-01-30T05:12:13.199Z,71.16
2023-01-30T05:17:24.185Z,71.08
2023-01-30T05:22:16.534Z,71.17
2023-01-30T05:27:16.446Z,71.44
2023-01-30T05:32:16.437Z,71.48
2023-01-30T05:37:16.362Z,71.57
2023-01-30T05:42:16.298Z,71.54
2023-01-30T05:47:16.206Z,71.55
2023-01-30T05:52:16.132Z,71.59
2023-01-30T05:57:16.063Z,71.61
2023-01-30T06:02:16.124Z,71.64
2023-01-30T06:07:15.967Z,71.74
2023-01-30T06:12:15.905Z,71.81
2023-01-30T06:17:15.801Z,71.77
2023-01-30T06:22:15.778Z,71.74
2023-01-30T06:27:15.686Z,71.86
2023-01-30T06:32:15.623Z,71.92
2023-01-30T06:37:15.534Z,71.99
2023-01-30T06:42:15.480Z,72.05
2023-01-30T06:47:15.427Z,72.09
2023-01-30T06:52:15.382Z,72.14
2023-01-30T06:57:15.315Z,72.24
2023-01-30T07:02:15.331Z,72.16
2023-01-30T07:07:15.167Z,72.14
2023-01-30T07:12:15.098Z,72.12
2023-01-30T07:17:15.047Z,72.10
2023-01-30T07:22:14.982Z,72.05
2023-01-30T07:27:14.908Z,72.06
2023-01-30T07:32:14.841Z,72.05
2023-01-30T07:37:14.816Z,72.02
2023-01-30T07:42:14.699Z,72.02
2023-01-30T07:47:14.756Z,72.04
2023-01-30T07:52:14.596Z,72.11
2023-01-30T07:57:14.512Z,72.24
2023-01-30T08:02:14.458Z,72.34
2023-01-30T08:07:14.403Z,72.46
2023-01-30T08:12:14.322Z,72.57
2023-01-30T08:17:14.280Z,72.53
2023-01-30T08:22:14.188Z,72.50
2023-01-30T08:27:14.141Z,72.48
2023-01-30T08:32:14.913Z,72.47
2023-01-30T08:37:14.023Z,72.39
2023-01-30T08:42:13.931Z,72.32
2023-01-30T08:47:13.894Z,72.18
2023-01-30T08:52:13.792Z,72.16
2023-01-30T08:57:13.773Z,72.14
2023-01-30T09:02:13.790Z,72.15
2023-01-30T09:07:13.667Z,72.12
2023-01-30T09:12:13.550Z,71.74
2023-01-30T09:17:13.504Z,71.41
2023-01-30T09:22:13.444Z,71.66
2023-01-30T09:27:13.391Z,71.80
2023-01-30T09:32:13.302Z,71.86
2023-01-30T09:37:13.240Z,71.90
2023-01-30T09:42:13.164Z,71.81
2023-01-30T09:47:13.159Z,71.74
2023-01-30T09:52:13.066Z,71.20
2023-01-30T09:57:22.007Z,70.97
2023-01-30T10:02:13.908Z,70.68
2023-01-30T10:07:12.864Z,70.76
2023-01-30T10:12:12.819Z,70.65
2023-01-30T10:17:12.728Z,70.49
2023-01-30T10:22:12.669Z,70.39
2023-01-30T10:27:12.596Z,68.94
2023-01-30T10:32:12.545Z,68.26
2023-01-30T10:37:12.445Z,69.08
2023-01-30T10:42:12.398Z,69.38
2023-01-30T10:47:12.358Z,60.04
2023-01-30T10:52:12.264Z,50.68
2023-01-30T10:57:12.228Z,54.60
2023-01-30T11:02:12.118Z,57.67
2023-01-30T11:07:12.064Z,56.91
2023-01-30T11:12:11.999Z,61.25
2023-01-30T11:17:11.939Z,63.30
2023-01-30T11:22:11.870Z,62.93
2023-01-30T11:27:11.873Z,64.62
2023-01-30T11:32:11.775Z,65.49
2023-01-30T11:37:11.683Z,65.25
2023-01-30T11:42:11.602Z,64.56
2023-01-30T11:47:11.544Z,64.00
2023-01-30T11:52:11.503Z,63.20
2023-01-30T11:57:11.411Z,60.99
2023-01-30T12:02:11.471Z,59.92
2023-01-30T12:07:11.302Z,61.23
2023-01-30T12:12:11.207Z,62.29
2023-01-30T12:17:11.170Z,61.50
2023-01-30T12:22:11.086Z,61.30
2023-01-30T12:27:11.049Z,61.52
2023-01-30T12:32:16.222Z,61.35
2023-01-30T12:37:11.025Z,61.89
2023-01-30T12:42:10.830Z,62.53
2023-01-30T12:47:10.732Z,62.66
2023-01-30T12:52:10.696Z,61.63
2023-01-30T12:57:10.609Z,60.89
2023-01-30T13:02:10.549Z,61.07
2023-01-30T13:07:10.486Z,61.41
2023-01-30T13:12:10.478Z,62.18
2023-01-30T13:17:10.358Z,62.84
2023-01-30T13:22:10.299Z,63.23
2023-01-30T13:27:10.221Z,63.16
2023-01-30T13:32:10.244Z,63.26
2023-01-30T13:37:10.082Z,63.25
2023-01-30T13:42:10.017Z,62.80
2023-01-30T13:47:09.955Z,62.88
2023-01-30T13:52:10.709Z,62.20
2023-01-30T13:57:09.811Z,61.15
2023-01-30T14:02:09.818Z,60.15
2023-01-30T14:07:09.730Z,59.58
2023-01-30T14:12:09.650Z,59.84
2023-01-30T14:17:09.595Z,60.58
2023-01-30T14:22:11.428Z,60.75
2023-01-30T14:27:09.985Z,61.12
2023-01-30T14:32:09.498Z,61.72
2023-01-30T14:37:09.313Z,62.10
2023-01-30T14:42:09.238Z,62.26
2023-01-30T14:47:35.162Z,62.51
2023-01-30T14:52:10.116Z,62.41
2023-01-30T14:57:09.029Z,62.34
2023-01-30T15:02:09.010Z,62.11
2023-01-30T15:07:08.893Z,62.12
2023-01-30T15:12:08.844Z,62.30
2023-01-30T15:17:09.123Z,62.44
2023-01-30T15:22:08.721Z,62.71
2023-01-30T15:27:08.655Z,62.67
2023-01-30T15:32:08.583Z,62.77
2023-01-30T15:37:08.743Z,62.98
2023-01-30T15:42:08.454Z,63.26
2023-01-30T15:47:08.377Z,63.40
2023-01-30T15:52:08.340Z,63.46
2023-01-30T15:57:08.247Z,63.53
2023-01-30T16:02:08.341Z,63.79
2023-01-30T16:07:08.120Z,64.04
2023-01-30T16:12:08.050Z,64.25
2023-01-30T16:17:08.005Z,64.39
2023-01-30T16:22:07.961Z,64.53
2023-01-30T16:27:07.874Z,64.65
2023-01-30T16:32:07.804Z,64.71
2023-01-30T16:37:07.820Z,64.77
2023-01-30T16:42:07.675Z,64.85
2023-01-30T16:47:07.630Z,64.92
2023-01-30T16:52:07.524Z,64.99
2023-01-30T16:57:07.471Z,65.06
2023-01-30T17:02:07.589Z,65.10
2023-01-30T17:07:07.344Z,65.07
2023-01-30T17:12:07.272Z,65.09
2023-01-30T17:17:07.187Z,65.12
2023-01-30T17:22:07.135Z,65.17
2023-01-30T17:27:07.054Z,65.24
2023-01-30T17:32:07.050Z,65.31
2023-01-30T17:37:06.959Z,65.37
2023-01-30T17:42:06.865Z,65.35
2023-01-30T17:47:06.821Z,65.38
2023-01-30T17:52:06.737Z,65.41
2023-01-30T17:57:06.654Z,65.39
2023-01-30T18:02:06.611Z,65.40
2023-01-30T18:07:06.648Z,65.40
2023-01-30T18:12:06.491Z,65.43
2023-01-30T18:17:06.467Z,65.46
2023-01-30T18:22:06.359Z,65.51
2023-01-30T18:27:06.270Z,65.51
2023-01-30T18:32:06.280Z,65.53
2023-01-30T18:37:06.114Z,65.51
2023-01-30T18:42:06.087Z,65.54
2023-01-30T18:47:06.007Z,65.61
2023-01-30T18:52:05.960Z,65.66
2023-01-30T18:57:05.884Z,65.68
2023-01-30T19:02:05.837Z,65.65
2023-01-30T19:07:05.728Z,65.69
2023-01-30T19:12:05.690Z,65.71
2023-01-30T19:17:05.614Z,65.74
2023-01-30T19:22:05.574Z,65.79
2023-01-30T19:27:05.474Z,65.78
2023-01-30T19:32:05.469Z,65.73
2023-01-30T19:37:05.379Z,65.75
2023-01-30T19:42:05.296Z,65.68
2023-01-30T19:47:05.213Z,65.62
2023-01-30T19:52:05.178Z,65.61
2023-01-30T19:57:05.081Z,65.63
2023-01-30T20:02:05.078Z,65.67
2023-01-30T20:07:04.953Z,65.65
2023-01-30T20:12:04.940Z,65.65
2023-01-30T20:17:04.824Z,65.64
2023-01-30T20:22:04.784Z,65.67
2023-01-30T20:27:04.680Z,66.02
2023-01-30T20:32:04.689Z,66.30
2023-01-30T20:37:04.557Z,66.51
2023-01-30T20:42:04.957Z,66.63
2023-01-30T20:47:04.664Z,66.74
2023-01-30T20:52:04.424Z,66.98
2023-01-30T20:57:04.911Z,67.15
2023-01-30T21:02:04.389Z,67.15
2023-01-30T21:07:04.151Z,67.19
2023-01-30T21:12:04.449Z,67.19
2023-01-30T21:17:04.035Z,67.21
2023-01-30T21:22:04.463Z,67.32
2023-01-30T21:27:03.994Z,67.31
2023-01-30T21:32:03.866Z,67.34
2023-01-30T21:37:03.755Z,67.33
2023-01-30T21:42:03.753Z,67.35
2023-01-30T21:47:03.599Z,67.43
2023-01-30T21:52:03.583Z,67.41
2023-01-30T21:57:03.476Z,67.47
2023-01-30T22:02:03.468Z,67.55
2023-01-30T22:07:06.427Z,67.57
2023-01-30T22:12:03.319Z,67.58
2023-01-30T22:17:03.263Z,67.65
2023-01-30T22:22:03.218Z,67.73
2023-01-30T22:27:03.132Z,67.85
2023-01-30T22:32:03.174Z,67.89
2023-01-30T22:37:03.010Z,67.96
2023-01-30T22:42:02.897Z,68.03
2023-01-30T22:47:02.960Z,68.03
2023-01-30T22:52:02.785Z,68.05
2023-01-30T22:57:02.696Z,68.08
2023-01-30T23:02:02.658Z,68.09
2023-01-30T23:07:02.577Z,68.14
2023-01-30T23:12:02.515Z,68.22
2023-01-30T23:17:02.487Z,68.26
2023-01-30T23:22:02.393Z,68.31
2023-01-30T23:27:02.326Z,68.32
2023-01-30T23:32:02.308Z,68.37
2023-01-30T23:37:02.182Z,68.41
2023-01-30T23:42:02.148Z,68.45
2023-01-30T23:47:02.039Z,68.46
2023-01-30T23:52:01.985Z,68.52
2023-01-30T23:57:01.938Z,68.58
